Time;durP1;ratioP1;P1;durP2;ratioP2;P2;SDS_P1;SDS_P2;PMS_P1;PMS_P2;Temp;Humidity;BMP_temperature;BMP_pressure;BME280_temperature;BME280_humidity;BME280_pressure;Samples;Min_cycle;Max_cycle;Signal;HPM_P1;HPM_P2
2022/04/25 00:08:47;;;;;;;12.63;6.03;;;9.10;99.90;;;;;;21073029;28;20405;-74
2022/04/25 00:18:49;;;;;;;9.87;6.50;;;9.10;99.90;;;;;;21072645;28;20103;-75
2022/04/25 00:28:49;;;;;;;6.85;5.05;;;9.10;99.90;;;;;;21076349;28;20081;-75
2022/04/25 00:38:50;;;;;;;9.07;6.53;;;9.10;99.90;;;;;;21087367;28;20424;-75
2022/04/25 00:48:51;;;;;;;12.50;8.30;;;9.10;99.90;;;;;;21086589;28;20486;-75
2022/04/25 00:58:52;;;;;;;9.67;6.13;;;9.10;99.90;;;;;;21085888;28;20367;-75
2022/04/25 01:08:53;;;;;;;10.53;7.37;;;9.10;99.90;;;;;;21067176;28;20082;-75
2022/04/25 01:18:54;;;;;;;12.40;7.43;;;9.10;99.90;;;;;;21084319;28;20474;-75
2022/04/25 01:28:55;;;;;;;11.53;6.93;;;9.10;99.90;;;;;;21083708;28;20027;-74
2022/04/25 01:38:56;;;;;;;7.82;5.38;;;9.10;99.90;;;;;;21082231;28;20020;-75
2022/04/25 01:48:57;;;;;;;8.60;5.37;;;9.00;99.90;;;;;;21081821;28;20078;-75
2022/04/25 01:58:58;;;;;;;;;;;9.00;99.90;;;;;;21081270;28;20035;-74
2022/04/25 02:08:59;;;;;;;11.43;6.80;;;9.00;99.90;;;;;;21079790;28;19908;-75
2022/04/25 02:19:00;;;;;;;11.53;7.40;;;9.00;99.90;;;;;;21079184;28;20285;-76
2022/04/25 02:29:01;;;;;;;11.20;6.60;;;9.00;99.90;;;;;;21078692;28;20035;-74
2022/04/25 02:39:03;;;;;;;11.80;7.93;;;9.00;99.90;;;;;;21077991;28;20028;-74
2022/04/25 02:49:04;;;;;;;12.55;7.82;;;9.10;99.90;;;;;;21076210;28;20157;-74
2022/04/25 02:59:06;;;;;;;10.23;5.97;;;9.20;99.90;;;;;;21076444;28;20064;-75
2022/04/25 03:09:07;;;;;;;18.25;9.57;;;9.10;99.90;;;;;;21057507;28;20540;-74
2022/04/25 03:19:09;;;;;;;12.90;8.30;;;9.20;99.90;;;;;;21074811;28;20028;-75
2022/04/25 03:29:10;;;;;;;;;;;9.20;99.90;;;;;;21074985;28;20043;-74
2022/04/25 03:39:11;;;;;;;11.57;7.22;;;9.20;99.90;;;;;;21055947;28;19912;-74
2022/04/25 03:49:13;;;;;;;15.57;9.10;;;9.30;99.90;;;;;;20973434;28;20407;-75
2022/04/25 03:59:14;;;;;;;14.25;8.60;;;9.30;99.90;;;;;;20956655;28;20037;-74
2022/04/25 04:19:38;;;;;;;16.75;9.27;;;9.40;99.90;;;;;;21003709;28;20040;-74
2022/04/25 04:29:39;;;;;;;15.52;8.85;;;9.40;99.90;;;;;;20986210;28;20116;-74
2022/04/25 04:39:40;;;;;;;18.10;9.95;;;9.40;99.90;;;;;;21003411;28;20039;-74
2022/04/25 04:49:41;;;;;;;20.13;10.63;;;9.50;99.90;;;;;;21002638;28;20028;-74
2022/04/25 04:59:42;;;;;;;17.73;9.80;;;9.50;99.90;;;;;;21001979;28;20064;-74
2022/04/25 05:09:42;;;;;;;18.17;10.00;;;9.50;99.90;;;;;;21001448;28;20037;-74
2022/04/25 05:19:43;;;;;;;33.00;10.60;;;9.60;99.90;;;;;;20996796;28;20028;-73
2022/04/25 05:29:44;;;;;;;18.87;10.40;;;9.70;99.90;;;;;;20997220;28;20024;-73
2022/04/25 05:39:45;;;;;;;18.05;10.15;;;9.90;99.90;;;;;;20999175;28;20028;-73
2022/04/25 06:00:07;;;;;;;17.55;9.90;;;10.70;99.90;;;;;;21064641;28;20490;-76
2022/04/25 06:10:16;;;;;;;13.30;9.07;;;10.90;99.90;;;;;;21081394;28;20070;-76
2022/04/25 06:20:21;;;;;;;16.45;9.77;;;10.70;99.90;;;;;;21080684;28;20024;-76
2022/04/25 06:30:23;;;;;;;17.73;11.18;;;10.80;99.90;;;;;;21080412;28;20032;-76
2022/04/25 06:40:24;;;;;;;17.80;10.52;;;10.90;99.90;;;;;;21067041;28;20138;-76
2022/04/25 06:50:25;;;;;;;15.73;9.73;;;11.10;99.90;;;;;;21078882;28;20066;-76
2022/04/25 07:00:27;;;;;;;13.73;9.13;;;11.20;99.90;;;;;;21078048;28;20525;-76
2022/04/25 07:10:28;;;;;;;15.38;8.15;;;11.60;99.90;;;;;;21076609;28;20043;-76
2022/04/25 07:20:29;;;;;;;15.47;9.07;;;11.50;99.90;;;;;;21076437;28;20036;-76
2022/04/25 07:30:31;;;;;;;16.60;9.93;;;11.30;99.90;;;;;;21062236;28;20362;-76
2022/04/25 07:40:31;;;;;;;15.73;9.80;;;11.40;99.90;;;;;;21056407;28;20032;-76
2022/04/25 07:50:32;;;;;;;16.73;9.93;;;11.50;99.90;;;;;;21074641;28;20047;-75
2022/04/25 08:00:35;;;;;;;14.47;9.03;;;11.50;99.90;;;;;;21073933;28;20049;-76
2022/04/25 08:10:35;;;;;;;16.40;9.68;;;11.70;99.90;;;;;;21073747;28;20051;-76
2022/04/25 08:20:37;;;;;;;16.23;9.07;;;12.00;99.90;;;;;;21073234;28;20039;-76
2022/04/25 08:30:38;;;;;;;14.63;8.52;;;12.40;99.90;;;;;;21076416;28;20086;-76
2022/04/25 08:40:40;;;;;;;7.70;5.20;;;12.50;99.90;;;;;;21072485;28;20024;-76
2022/04/25 08:50:41;;;;;;;5.28;3.75;;;12.20;99.90;;;;;;21078445;28;20074;-76
2022/04/25 09:00:42;;;;;;;3.75;2.45;;;12.30;99.90;;;;;;21087211;28;20035;-76
2022/04/25 09:10:44;;;;;;;4.27;2.37;;;12.70;99.90;;;;;;21069880;28;20033;-76
2022/04/25 09:20:46;;;;;;;3.30;2.03;;;12.30;99.90;;;;;;21090006;28;20093;-76
2022/04/25 09:31:00;;;;;;;7.53;2.10;;;12.20;99.90;;;;;;21066973;28;20067;-76
2022/04/25 09:41:01;;;;;;;5.18;2.00;;;12.20;99.90;;;;;;21083571;28;20085;-76
2022/04/25 09:51:02;;;;;;;5.47;3.20;;;12.00;99.90;;;;;;21083379;28;20063;-76
2022/04/25 10:01:11;;;;;;;6.40;2.87;;;11.10;99.90;;;;;;21085100;28;20036;-76
2022/04/25 10:11:14;;;;;;;2.67;1.60;;;10.90;99.90;;;;;;21063497;28;20067;-76
2022/04/25 10:21:15;;;;;;;5.43;2.55;;;10.50;99.90;;;;;;21081622;28;20486;-76
2022/04/25 10:31:38;;;;;;;3.67;2.87;;;10.80;99.90;;;;;;21079856;28;20040;-76
2022/04/25 10:52:34;;;;;;;7.43;4.35;;;12.30;99.90;;;;;;21091401;28;20028;-76
2022/04/25 11:02:35;;;;;;;6.82;4.40;;;12.10;99.90;;;;;;21067623;28;20465;-75
2022/04/25 11:12:58;;;;;;;8.27;4.47;;;11.60;99.90;;;;;;21058022;28;20028;-76
2022/04/25 11:22:59;;;;;;;4.30;3.38;;;11.80;99.90;;;;;;21058100;28;20439;-76
2022/04/25 11:33:08;;;;;;;4.80;3.43;;;13.00;99.90;;;;;;21057121;28;20036;-76
2022/04/25 11:43:09;;;;;;;6.53;3.72;;;13.70;99.90;;;;;;21075094;28;20032;-76
2022/04/25 11:53:10;;;;;;;6.47;3.87;;;13.90;99.90;;;;;;21058740;28;20086;-77
2022/04/25 12:03:19;;;;;;;8.87;4.40;;;13.70;99.90;;;;;;21058932;28;20486;-77
2022/04/25 12:23:51;;;;;;;5.60;3.65;;;14.40;99.90;;;;;;21091447;28;20086;-77
2022/04/25 12:33:53;;;;;;;4.25;3.00;;;14.50;99.90;;;;;;21097121;28;20031;-77
2022/04/25 12:43:56;;;;;;;4.82;3.95;;;15.40;99.90;;;;;;21093643;28;20118;-77
2022/04/25 12:53:58;;;;;;;5.88;3.80;;;14.30;99.90;;;;;;21087442;28;20090;-76
2022/04/25 13:04:12;;;;;;;4.63;3.38;;;14.90;99.90;;;;;;21119272;28;20071;-77
2022/04/25 13:14:14;;;;;;;5.32;3.70;;;16.20;99.90;;;;;;21124191;28;20024;-77
2022/04/25 13:24:15;;;;;;;6.63;3.65;;;16.60;99.90;;;;;;21112581;28;20032;-77
2022/04/25 13:34:16;;;;;;;5.83;3.97;;;16.50;99.90;;;;;;21072244;28;20024;-77
2022/04/25 13:44:17;;;;;;;6.73;3.57;;;16.30;99.90;;;;;;21125963;28;20439;-77
2022/04/25 13:54:18;;;;;;;8.80;5.33;;;16.20;99.90;;;;;;21052203;28;20040;-77
2022/04/25 14:04:19;;;;;;;5.80;4.10;;;15.30;99.90;;;;;;21058933;28;20485;-77
2022/04/25 14:14:20;;;;;;;4.60;3.60;;;15.20;99.90;;;;;;21023488;28;20156;-77
2022/04/25 14:24:23;;;;;;;5.57;3.40;;;15.60;99.90;;;;;;21065108;28;20031;-77
2022/04/25 14:34:24;;;;;;;8.15;3.60;;;16.10;99.90;;;;;;21071858;28;20039;-77
2022/04/25 14:44:25;;;;;;;4.07;3.27;;;15.20;99.90;;;;;;21054294;28;20028;-77
2022/04/25 14:54:30;;;;;;;6.00;4.23;;;15.00;99.90;;;;;;21077364;28;20028;-77
2022/04/25 15:04:31;;;;;;;4.65;3.33;;;15.20;99.90;;;;;;21062713;28;20032;-77
2022/04/25 15:14:31;;;;;;;3.40;2.70;;;14.90;99.90;;;;;;21024503;28;20031;-77
2022/04/25 15:24:33;;;;;;;2.83;2.50;;;14.50;99.90;;;;;;21040452;28;20078;-77
2022/04/25 15:34:34;;;;;;;7.87;2.73;;;14.00;99.90;;;;;;21040273;28;20031;-76
2022/04/25 15:44:34;;;;;;;5.97;4.30;;;13.60;99.90;;;;;;21018569;28;20044;-77
2022/04/25 16:04:56;;;;;;;7.05;5.32;;;12.50;99.90;;;;;;21087204;28;20589;-77
2022/04/25 16:14:57;;;;;;;;;;;12.00;99.90;;;;;;21093523;28;20035;-78
2022/04/25 16:25:00;;;;;;;12.35;6.13;;;11.60;99.90;;;;;;21074757;28;19970;-77
2022/04/25 16:35:01;;;;;;;10.38;6.35;;;11.30;99.90;;;;;;20991345;28;20051;-77
2022/04/25 16:45:02;;;;;;;12.70;7.70;;;11.40;99.90;;;;;;21044195;28;21451;-76
2022/04/25 16:55:03;;;;;;;13.27;9.40;;;11.00;99.90;;;;;;21000353;28;20028;-77
2022/04/25 17:05:05;;;;;;;;;;;10.80;99.90;;;;;;21024085;28;20051;-77
2022/04/25 17:15:06;;;;;;;13.68;7.72;;;11.00;99.90;;;;;;21051586;28;19930;-76
2022/04/25 17:25:08;;;;;;;8.53;5.53;;;10.80;99.90;;;;;;21075495;28;20032;-76
2022/04/25 17:35:20;;;;;;;;;;;10.70;99.90;;;;;;21063322;28;20282;-75
